Terminal Aerodrome Forecast
Issued by NWS

Home | Current Version | Previous Version | Text Only | Print | Product List | Glossary On
Versions: 1 2 3 4 5 6 7 8 9 10 11 12 13 14
000
FTUS46 KHNX 042339
TAFMCE
TAF
KMCE 042339Z 0500/0524 33003KT 6SM HZ SCT250
     FM050900 VRB02KT 3SM BR SCT250
     FM051900 32003KT 6SM HZ SKC=

USA.gov is the U.S. government's official web portal to all federal, state and local government web resources and services.